College Place, Washington
Current Conditions -  °F | °C
As of 7:53 PM on Sunday 23 Nov 2014 (Local Time) from KALW Reporting Station
Clear Clear  
Wind Chill: 37°   Ceiling: Unl
Heat Index: 43°   Visibility: 10mi
Dew Point: 37°   Wind: 10mph
Humidity: 80%   Direction: 190°S
Pressure: 30.22"   Gusts: NA
Location:  46.03°N, 118.38°W
Report Text: KALW 240353Z AUTO 19009KT 10SM CLR 06/03 A3022 RMK AO2 SLP238 T00610028
Loading
Personal Weather Stations






























Interactive Weather Map New forecast layout! Learn more

10-Day Weather Forecast

Advertisements
Track Severe Weather on mobile